NAV weather

Nevşehir Kapadokya Airport
Nevşehir, Nevşehir Province, Turkey

Public forecast

Using degrees Celsius for public forecast. Weather courtesy of forecast.io.

Current aviation weather report (METAR) for Nevşehir Kapadokya Airport

Retrieved 2020/02/21 21:50 UTC (38 minutes ago):

LTAZ 212150Z VRB02KT 9999 BKN030 BKN080 04/03 Q1011

Aviation forecast (TAF) for Nevşehir Kapadokya Airport

Retrieved 2020/02/21 18:03 UTC (4 hours ago):

TAF LTAZ 211640Z 2118/2218 13013KT 9999 -RA BKN035 BKN080 BECMG 2120/2123 VRB02KT 4000 BR SCT010 BKN025 PROB40 TEMPO 2204/2208 1000 -RASN BCFG BECMG 2208/2210 8000